Terminal Aerodrome Forecast
Issued by NWS

Home | Current Version | Previous Version | Text Only | Print | Product List | Glossary On
Versions: 1 2 3 4 5 6 7 8 9 10 11 12 13 14 15 16 17 18 19 20 21 22 23 24 25 26 27
000
FTUS41 KCAR 020600 AAB
TAFHUL
TAF AMD
KHUL 020634Z 0207/0306 05004KT 1/2SM FG VV001
      TEMPO 0207/0210 6SM BR SCT002
     FM021000 04004KT 6SM BR SCT250
     FM021300 05005KT P6SM SCT250=

USA.gov is the U.S. government's official web portal to all federal, state and local government web resources and services.